Time;durP1;ratioP1;P1;durP2;ratioP2;P2;SDS_P1;SDS_P2;PMS_P1;PMS_P2;Temp;Humidity;BMP_temperature;BMP_pressure;BME280_temperature;BME280_humidity;BME280_pressure;Samples;Min_cycle;Max_cycle;Signal;HPM_P1;HPM_P2
2021/08/02 00:01:30;;;;;;;14.85;9.63;;;;;;;23.50;64.62;99579.63;1707621;84;21494;-65
2021/08/02 00:04:08;;;;;;;13.50;9.93;;;;;;;23.48;64.78;99582.68;1706523;82;21489;-65
2021/08/02 00:06:52;;;;;;;14.47;9.30;;;;;;;23.48;64.79;99588.16;1707719;84;21203;-65
2021/08/02 00:09:24;;;;;;;11.97;8.38;;;;;;;23.50;64.92;99584.55;1704693;84;21506;-66
2021/08/02 00:11:57;;;;;;;15.23;8.60;;;;;;;23.51;64.97;99586.70;1706321;84;20967;-66
2021/08/02 00:14:24;;;;;;;17.90;9.03;;;;;;;23.49;65.02;99580.20;1706357;84;20979;-66
2021/08/02 00:16:51;;;;;;;10.63;8.53;;;;;;;23.49;65.13;99583.50;1707367;84;21078;-66
2021/08/02 00:19:19;;;;;;;;;;;;;;;23.48;65.10;99570.38;1724801;82;21544;-66
2021/08/02 00:21:48;;;;;;;14.60;9.13;;;;;;;23.48;65.23;99569.58;1724344;82;20094;-66
2021/08/02 00:24:15;;;;;;;15.25;9.35;;;;;;;23.46;65.32;99563.07;1725527;82;21052;-65
2021/08/02 00:26:42;;;;;;;11.95;9.38;;;;;;;23.44;65.35;99567.50;1724845;82;20908;-67
2021/08/02 00:29:11;;;;;;;13.50;9.33;;;;;;;23.42;65.36;99567.03;1685024;84;21069;-67
2021/08/02 00:31:38;;;;;;;21.70;9.30;;;;;;;23.42;65.33;99564.30;1707705;84;21796;-66
2021/08/02 00:34:07;;;;;;;17.80;8.75;;;;;;;23.44;65.35;99562.60;1707397;83;20939;-66
2021/08/02 00:36:54;;;;;;;14.18;9.33;;;;;;;23.44;65.35;99553.03;1707395;84;21058;-66
2021/08/02 00:39:41;;;;;;;12.45;8.83;;;;;;;23.46;65.31;99552.70;1707414;82;20962;-65
2021/08/02 00:42:41;;;;;;;12.70;8.55;;;;;;;23.48;65.32;99562.17;1704568;84;21019;-66
2021/08/02 00:45:22;;;;;;;15.63;9.53;;;;;;;23.44;65.30;99568.86;1706118;83;21138;-67
2021/08/02 00:47:54;;;;;;;14.63;8.70;;;;;;;23.46;65.42;99565.02;1685040;84;21409;-65
2021/08/02 00:50:27;;;;;;;13.05;9.43;;;;;;;23.46;65.37;99556.23;1704938;84;21030;-66
2021/08/02 00:53:00;;;;;;;15.13;9.55;;;;;;;23.49;65.33;99560.27;1705276;84;21482;-64
2021/08/02 00:55:29;;;;;;;18.60;10.23;;;;;;;23.49;65.28;99562.99;1705353;83;20938;-65
2021/08/02 00:57:57;;;;;;;13.83;9.93;;;;;;;23.45;65.31;99551.88;1671828;84;22742;-64
2021/08/02 01:00:25;;;;;;;15.43;9.35;;;;;;;23.40;65.48;99552.86;1693485;84;21046;-66
2021/08/02 01:02:56;;;;;;;18.85;9.13;;;;;;;23.31;65.63;99550.70;1705212;84;21141;-65
2021/08/02 01:05:23;;;;;;;17.17;10.45;;;;;;;23.29;65.86;99552.95;1705397;84;21614;-64
2021/08/02 01:08:01;;;;;;;14.58;9.58;;;;;;;23.26;66.04;99546.76;1705262;84;21512;-65
2021/08/02 01:10:33;;;;;;;13.90;9.48;;;;;;;23.22;66.19;99552.66;1673269;84;21244;-65
2021/08/02 01:13:05;;;;;;;16.52;10.38;;;;;;;23.20;66.39;99550.25;1705056;84;21053;-65
2021/08/02 01:15:34;;;;;;;14.53;10.40;;;;;;;23.17;66.59;99549.50;1705366;84;20962;-66
2021/08/02 01:18:02;;;;;;;19.52;10.08;;;;;;;23.14;66.74;99540.58;1705071;84;21012;-66
2021/08/02 01:20:33;;;;;;;17.48;10.35;;;;;;;23.10;66.92;99546.47;1705131;84;21010;-66
2021/08/02 01:23:04;;;;;;;22.75;10.15;;;;;;;23.05;67.06;99543.28;1705106;84;21099;-66
2021/08/02 01:25:40;;;;;;;13.53;9.50;;;;;;;23.02;67.19;99539.83;1705184;84;21513;-66
2021/08/02 01:28:22;;;;;;;14.55;9.30;;;;;;;23.05;67.26;99542.48;1702358;84;21488;-65
2021/08/02 01:31:01;;;;;;;15.25;9.80;;;;;;;23.12;67.15;99537.38;1701472;84;22010;-65
2021/08/02 01:33:36;;;;;;;14.43;9.68;;;;;;;23.19;66.96;99544.53;1701453;82;21569;-66
2021/08/02 01:36:10;;;;;;;16.20;10.45;;;;;;;23.24;66.79;99540.25;1705260;83;21149;-65
2021/08/02 01:38:39;;;;;;;17.52;10.88;;;;;;;23.25;66.70;99545.97;1702213;84;20885;-66
2021/08/02 01:41:08;;;;;;;12.73;9.53;;;;;;;23.25;66.62;99546.54;1701880;82;21550;-66
2021/08/02 01:43:37;;;;;;;18.57;10.50;;;;;;;23.26;66.60;99548.12;1704613;84;20979;-66
2021/08/02 01:46:21;;;;;;;16.48;10.30;;;;;;;23.30;66.51;99552.40;1701722;82;20939;-66
2021/08/02 01:49:03;;;;;;;17.50;10.15;;;;;;;23.35;66.44;99557.14;1699831;84;21108;-65
2021/08/02 01:51:46;;;;;;;13.00;9.93;;;;;;;23.39;66.31;99546.34;1699645;83;20975;-65
2021/08/02 01:54:42;;;;;;;16.30;10.35;;;;;;;23.37;66.22;99550.77;1698558;84;21509;-65
2021/08/02 01:57:30;;;;;;;12.98;10.30;;;;;;;23.27;66.32;99553.27;1699395;83;21441;-66
2021/08/02 02:00:13;;;;;;;17.23;9.98;;;;;;;23.19;66.57;99551.36;1695125;84;21003;-66
2021/08/02 02:02:58;;;;;;;17.67;10.72;;;;;;;23.16;66.81;99562.94;1695387;84;21781;-67
2021/08/02 02:05:32;;;;;;;18.42;10.93;;;;;;;23.20;66.88;99569.92;1674408;84;21026;-67
2021/08/02 02:08:17;;;;;;;21.27;11.45;;;;;;;23.23;66.86;99572.01;1698739;84;21023;-67
2021/08/02 02:10:49;;;;;;;20.37;12.15;;;;;;;23.26;66.72;99574.09;1699590;84;21114;-65
2021/08/02 02:13:27;;;;;;;21.65;10.43;;;;;;;23.21;66.75;99581.91;1699788;83;21019;-65
2021/08/02 02:15:55;;;;;;;18.87;10.85;;;;;;;23.17;66.90;99584.23;1695652;84;21155;-65
2021/08/02 02:18:24;;;;;;;19.17;11.05;;;;;;;23.14;67.13;99584.88;1699513;84;21023;-65
2021/08/02 02:20:52;;;;;;;18.83;11.13;;;;;;;23.12;67.21;99578.95;1699757;84;20964;-65
2021/08/02 02:23:19;;;;;;;24.57;11.78;;;;;;;23.09;67.30;99581.15;1700101;83;20999;-66
2021/08/02 02:25:46;;;;;;;18.05;11.22;;;;;;;23.05;67.48;99575.28;1699556;84;20945;-64
2021/08/02 02:28:15;;;;;;;14.10;11.25;;;;;;;22.97;67.67;99582.90;1678849;84;21301;-67
2021/08/02 02:30:42;;;;;;;23.18;11.85;;;;;;;22.88;68.01;99576.88;1699624;84;20943;-65
2021/08/02 02:33:13;;;;;;;15.78;12.00;;;;;;;22.82;68.23;99583.63;1668293;84;20913;-66
2021/08/02 02:35:46;;;;;;;22.58;11.38;;;;;;;22.78;68.43;99588.69;1679796;84;20979;-65
2021/08/02 02:38:15;;;;;;;20.88;11.45;;;;;;;22.79;68.52;99580.72;1699780;84;20998;-63
2021/08/02 02:40:43;;;;;;;23.05;12.03;;;;;;;22.79;68.62;99570.61;1667329;84;21151;-64
2021/08/02 02:43:12;;;;;;;23.45;12.40;;;;;;;22.82;68.67;99560.95;1699667;84;20943;-65
2021/08/02 02:45:43;;;;;;;22.45;12.13;;;;;;;22.87;68.64;99565.70;1698705;84;20944;-65
2021/08/02 02:48:09;;;;;;;28.47;11.90;;;;;;;22.89;68.55;99560.74;1761574;81;21049;-64
2021/08/02 02:50:37;;;;;;;22.00;12.45;;;;;;;22.93;68.50;99557.58;1761948;81;21406;-66
2021/08/02 02:53:04;;;;;;;23.05;11.97;;;;;;;23.00;68.43;99555.75;1759536;80;21139;-65
2021/08/02 02:55:33;;;;;;;29.90;12.95;;;;;;;23.05;68.35;99561.62;1778559;80;20966;-65
2021/08/02 02:58:01;;;;;;;21.10;11.83;;;;;;;23.08;68.26;99564.50;1746394;81;21417;-64
2021/08/02 03:00:28;;;;;;;27.25;13.25;;;;;;;23.13;68.19;99567.69;1768719;80;21099;-65
2021/08/02 03:02:56;;;;;;;21.90;12.67;;;;;;;23.17;68.10;99571.94;1763393;80;21076;-65
2021/08/02 03:05:24;;;;;;;19.30;12.15;;;;;;;23.22;68.01;99574.52;1761648;80;21156;-66
2021/08/02 03:07:55;;;;;;;24.65;13.00;;;;;;;23.25;67.86;99575.24;1762144;81;21497;-65
2021/08/02 03:10:24;;;;;;;27.32;11.78;;;;;;;23.24;67.76;99571.69;1759498;81;20936;-66
2021/08/02 03:12:53;;;;;;;21.60;12.70;;;;;;;23.18;67.81;99570.25;1762134;81;21520;-66
2021/08/02 03:15:20;;;;;;;18.55;12.55;;;;;;;23.16;67.95;99575.24;1762576;81;20939;-65
2021/08/02 03:17:47;;;;;;;26.07;13.05;;;;;;;23.19;67.98;99576.51;1747387;81;21117;-65
2021/08/02 03:20:15;;;;;;;27.93;12.68;;;;;;;23.23;67.87;99576.94;1762020;80;28267;-67
2021/08/02 03:22:50;;;;;;;22.25;12.28;;;;;;;23.26;67.79;99587.77;1768493;80;20989;-64
2021/08/02 03:25:29;;;;;;;25.25;12.13;;;;;;;23.33;67.64;99586.72;1762190;81;21005;-64
2021/08/02 03:28:31;;;;;;;30.17;12.27;;;;;;;23.40;67.40;99589.78;1758025;80;20900;-64
2021/08/02 03:31:01;;;;;;;26.90;13.30;;;;;;;23.45;67.24;99588.80;1762499;81;21098;-65
2021/08/02 03:33:38;;;;;;;22.52;13.88;;;;;;;23.52;66.98;99585.59;1761881;81;20921;-65
2021/08/02 03:36:11;;;;;;;23.05;12.28;;;;;;;23.53;66.80;99585.84;1762107;81;21059;-63
2021/08/02 03:38:39;;;;;;;27.13;12.63;;;;;;;23.53;66.75;99585.84;1760939;81;20983;-65
2021/08/02 03:41:07;;;;;;;21.77;11.93;;;;;;;23.54;66.75;99582.78;1762528;81;20951;-64
2021/08/02 03:43:35;;;;;;;20.55;13.00;;;;;;;23.59;66.69;99581.80;1762204;81;21142;-65
2021/08/02 03:46:04;;;;;;;18.55;12.18;;;;;;;23.66;66.52;99574.45;1758093;80;21027;-62
2021/08/02 03:48:32;;;;;;;;;;;;;;;23.74;66.30;99569.54;1767324;81;21014;-65
2021/08/02 03:50:59;;;;;;;25.15;12.58;;;;;;;23.80;66.10;99573.13;1765173;81;20093;-65
2021/08/02 03:53:25;;;;;;;18.15;11.85;;;;;;;23.83;65.96;99574.98;1758262;81;21054;-63
2021/08/02 03:55:52;;;;;;;19.85;12.43;;;;;;;23.83;66.02;99566.20;1763536;81;21132;-64
2021/08/02 03:58:19;;;;;;;21.42;11.80;;;;;;;23.80;66.24;99560.02;1764829;81;21269;-64
2021/08/02 04:00:46;;;;;;;24.95;12.75;;;;;;;23.88;66.35;99555.67;1764871;81;21209;-64
2021/08/02 04:03:14;;;;;;;22.93;12.90;;;;;;;24.04;66.09;99561.41;1764925;81;20912;-64
2021/08/02 04:05:41;;;;;;;21.60;12.47;;;;;;;24.09;66.06;99559.30;1765136;81;20997;-64
2021/08/02 04:08:08;;;;;;;31.68;13.35;;;;;;;24.12;66.26;99553.75;1764862;81;21083;-63
2021/08/02 04:10:35;;;;;;;18.67;12.13;;;;;;;24.07;66.47;99560.21;1765136;81;20923;-63
2021/08/02 04:13:03;;;;;;;21.02;11.97;;;;;;;24.02;66.78;99562.32;1765072;81;21049;-63
2021/08/02 04:15:31;;;;;;;21.85;12.30;;;;;;;23.99;67.02;99558.30;1764902;81;20937;-63
2021/08/02 04:17:57;;;;;;;17.15;11.75;;;;;;;24.01;66.99;99565.60;1759639;81;21587;-64
2021/08/02 04:20:24;;;;;;;18.32;12.00;;;;;;;24.05;67.11;99572.03;1743812;81;21774;-64
2021/08/02 04:22:51;;;;;;;18.75;10.98;;;;;;;24.12;67.01;99571.54;1768132;79;21066;-63
2021/08/02 04:25:19;;;;;;;15.70;11.20;;;;;;;24.26;66.87;99563.09;1771545;79;21038;-63
2021/08/02 04:27:45;;;;;;;15.53;12.03;;;;;;;24.55;66.31;99571.88;1764862;81;21037;-63
2021/08/02 04:30:13;;;;;;;18.85;11.78;;;;;;;25.05;65.20;99570.28;1759462;81;21018;-63
2021/08/02 04:32:44;;;;;;;18.97;11.20;;;;;;;25.80;63.66;99565.91;1765150;81;21846;-64
2021/08/02 04:35:11;;;;;;;18.30;11.83;;;;;;;26.83;61.26;99554.50;1765044;81;21379;-63
2021/08/02 04:37:39;;;;;;;16.33;10.93;;;;;;;27.92;56.98;99553.56;1765189;80;20939;-65
2021/08/02 04:40:07;;;;;;;18.57;11.00;;;;;;;28.70;54.79;99543.44;1763326;79;21165;-63
2021/08/02 04:42:36;;;;;;;11.38;9.45;;;;;;;29.31;53.06;99539.17;1767950;79;21524;-63
2021/08/02 04:45:04;;;;;;;15.85;9.43;;;;;;;30.07;51.52;99543.31;1764897;80;21146;-63
2021/08/02 04:47:31;;;;;;;12.30;9.10;;;;;;;31.01;49.31;99544.09;1686627;84;21122;-68
2021/08/02 04:49:59;;;;;;;13.43;9.45;;;;;;;31.85;47.30;99547.36;1707571;83;21018;-67
2021/08/02 04:52:26;;;;;;;15.87;8.23;;;;;;;32.53;45.60;99549.08;1707814;83;20984;-68
2021/08/02 04:54:55;;;;;;;12.15;8.50;;;;;;;33.14;44.62;99551.58;1707117;84;21703;-67
2021/08/02 04:57:22;;;;;;;16.50;8.68;;;;;;;33.95;42.52;99543.03;1707669;84;21176;-68
2021/08/02 04:59:49;;;;;;;10.75;7.67;;;;;;;34.62;41.86;99543.34;1707376;84;20900;-67
2021/08/02 05:02:16;;;;;;;10.82;8.48;;;;;;;35.30;39.98;99538.13;1708864;82;21539;-68
2021/08/02 05:04:45;;;;;;;12.25;8.18;;;;;;;35.82;38.30;99556.12;1711959;82;21009;-68
2021/08/02 05:07:12;;;;;;;12.23;7.50;;;;;;;35.82;38.30;99556.12;1707643;84;21018;-67
2021/08/02 05:09:40;;;;;;;12.25;7.83;;;;;;;35.95;38.74;99567.77;1707359;84;21153;-68
2021/08/02 05:12:08;;;;;;;13.93;7.65;;;;;;;36.42;38.01;99569.36;1707571;84;20987;-68
2021/08/02 05:14:37;;;;;;;15.15;7.90;;;;;;;36.93;36.59;99573.20;1705021;84;20979;-69
2021/08/02 05:17:07;;;;;;;9.78;7.50;;;;;;;37.24;36.03;99573.81;1707403;83;20904;-68
2021/08/02 05:19:34;;;;;;;12.98;7.90;;;;;;;37.42;35.85;99571.58;1706794;84;21070;-68
2021/08/02 05:22:01;;;;;;;10.13;7.80;;;;;;;37.72;35.40;99571.94;1707445;84;21154;-67
2021/08/02 05:24:28;;;;;;;12.60;7.70;;;;;;;38.04;35.04;99567.25;1707684;84;20968;-68
2021/08/02 05:26:55;;;;;;;;;;;;;;;38.38;34.29;99560.68;1709910;84;20951;-69
2021/08/02 05:29:22;;;;;;;16.70;8.63;;;;;;;38.61;33.74;99545.85;1707912;84;20462;-70
2021/08/02 05:31:49;;;;;;;10.32;7.80;;;;;;;38.69;33.59;99536.13;1706841;84;27074;-68
2021/08/02 05:34:16;;;;;;;8.25;7.40;;;;;;;38.70;33.44;99529.91;1711701;82;21105;-68
2021/08/02 05:39:42;;;;;;;8.85;7.67;;;;;;;38.80;33.38;99535.13;1719684;82;20957;-70
2021/08/02 05:42:10;;;;;;;9.65;7.17;;;;;;;38.66;33.62;99523.59;1721268;82;20936;-69
2021/08/02 05:44:40;;;;;;;12.53;7.90;;;;;;;38.18;34.23;99529.86;1720518;82;21021;-70
2021/08/02 05:47:14;;;;;;;13.68;7.65;;;;;;;37.59;35.43;99529.22;1717525;82;21173;-69
2021/08/02 05:49:41;;;;;;;11.20;8.15;;;;;;;37.02;36.45;99539.80;1702510;82;20928;-70
2021/08/02 05:52:10;;;;;;;12.05;8.00;;;;;;;36.58;37.11;99536.09;1697112;83;21004;-68
2021/08/02 05:54:37;;;;;;;17.80;7.53;;;;;;;36.57;37.30;99540.69;1696709;84;20936;-68
2021/08/02 05:57:05;;;;;;;11.53;7.62;;;;;;;36.70;36.98;99543.13;1696887;83;21086;-69
2021/08/02 05:59:32;;;;;;;10.10;7.45;;;;;;;36.97;36.54;99552.20;1697486;83;21137;-69
2021/08/02 06:01:59;;;;;;;14.50;7.70;;;;;;;37.30;36.17;99543.61;1729765;81;20919;-69
2021/08/02 06:04:26;;;;;;;8.08;7.28;;;;;;;37.58;35.72;99538.81;1722398;81;20947;-69
2021/08/02 06:06:54;;;;;;;10.03;7.30;;;;;;;37.93;35.39;99516.30;1762153;81;20928;-71
2021/08/02 06:09:22;;;;;;;13.45;7.20;;;;;;;38.16;34.43;99511.30;1769604;80;21018;-70
2021/08/02 06:11:49;;;;;;;8.05;7.08;;;;;;;38.19;34.81;99518.86;1777286;80;21077;-70
2021/08/02 06:14:18;;;;;;;9.78;7.00;;;;;;;38.37;34.53;99526.33;1780641;80;21034;-70
2021/08/02 06:16:49;;;;;;;11.05;6.87;;;;;;;38.42;34.16;99509.64;1781547;80;20963;-71
2021/08/02 06:19:17;;;;;;;9.35;7.35;;;;;;;37.97;34.67;99505.84;1764361;80;20915;-70
2021/08/02 06:21:44;;;;;;;11.30;7.47;;;;;;;37.23;36.04;99513.56;1742256;80;21523;-70
2021/08/02 06:24:11;;;;;;;11.08;7.42;;;;;;;36.44;37.22;99506.95;1686820;85;21158;-72
2021/08/02 06:26:38;;;;;;;11.95;7.47;;;;;;;35.55;38.80;99498.17;1762501;81;26828;-70
2021/08/02 06:29:05;;;;;;;12.23;7.55;;;;;;;34.66;40.39;99510.75;1741699;81;20985;-70
2021/08/02 06:31:35;;;;;;;9.90;7.90;;;;;;;33.85;42.44;99511.88;1686137;85;20991;-70
2021/08/02 06:34:02;;;;;;;13.85;8.20;;;;;;;33.33;43.37;99506.62;1701900;84;20999;-69
2021/08/02 06:36:29;;;;;;;13.93;9.30;;;;;;;33.00;44.32;99501.56;1695826;83;21800;-69
2021/08/02 06:38:56;;;;;;;10.32;9.23;;;;;;;32.95;44.88;99488.86;1761608;81;20924;-69
2021/08/02 06:41:23;;;;;;;19.50;9.70;;;;;;;32.93;45.12;99489.05;1686470;85;21098;-70
2021/08/02 06:43:51;;;;;;;12.33;8.80;;;;;;;32.86;45.59;99482.08;1685097;85;20935;-71
2021/08/02 06:46:18;;;;;;;13.13;9.15;;;;;;;32.78;46.04;99482.66;1762664;81;21391;-72
2021/08/02 06:48:45;;;;;;;12.77;9.00;;;;;;;32.70;46.41;99486.00;1764972;81;21132;-70
2021/08/02 06:51:14;;;;;;;14.75;9.38;;;;;;;32.58;46.61;99481.56;1764618;81;20981;-72
2021/08/02 06:53:41;;;;;;;13.72;9.55;;;;;;;32.42;46.65;99476.90;1760240;81;21043;-69
2021/08/02 06:56:08;;;;;;;15.32;9.53;;;;;;;31.99;47.40;99470.47;1715123;81;21032;-68
2021/08/02 06:58:35;;;;;;;15.25;9.98;;;;;;;31.56;48.75;99472.92;1727047;81;21070;-71
2021/08/02 07:01:02;;;;;;;12.47;9.20;;;;;;;31.23;49.70;99468.44;1686956;84;21127;-68
2021/08/02 07:03:30;;;;;;;15.60;8.90;;;;;;;30.92;50.42;99462.15;1674839;84;20979;-66
2021/08/02 07:05:56;;;;;;;22.42;9.58;;;;;;;30.79;51.22;99462.20;1707575;84;20955;-67
2021/08/02 07:08:23;;;;;;;20.17;11.18;;;;;;;30.87;51.79;99465.83;1707399;84;21497;-67
2021/08/02 07:10:50;;;;;;;14.37;10.10;;;;;;;31.12;51.78;99462.58;1707931;83;21055;-69
2021/08/02 07:13:17;;;;;;;13.65;10.28;;;;;;;31.40;50.76;99455.92;1707703;84;21135;-68
2021/08/02 07:15:46;;;;;;;13.58;9.68;;;;;;;31.60;50.54;99457.14;1685661;84;20999;-70
2021/08/02 07:18:12;;;;;;;13.88;9.68;;;;;;;31.77;50.24;99447.36;1705924;84;20942;-69
2021/08/02 07:20:39;;;;;;;19.40;9.95;;;;;;;31.89;49.29;99440.15;1707902;83;21083;-70
2021/08/02 07:23:07;;;;;;;15.30;9.78;;;;;;;31.90;48.85;99432.62;1704098;84;21429;-69
2021/08/02 07:25:34;;;;;;;16.40;9.87;;;;;;;31.86;49.66;99434.56;1708193;84;21754;-69
2021/08/02 07:28:00;;;;;;;13.73;9.10;;;;;;;31.87;49.35;99430.02;1707535;83;20988;-60
2021/08/02 07:30:28;;;;;;;15.28;9.93;;;;;;;31.96;49.03;99431.89;1707529;83;21557;-59
2021/08/02 07:32:55;;;;;;;19.15;9.85;;;;;;;32.10;48.80;99424.84;1707513;84;21022;-59
2021/08/02 07:35:22;;;;;;;12.23;9.10;;;;;;;32.22;48.74;99425.12;1687494;84;21149;-60
2021/08/02 07:37:49;;;;;;;17.17;9.65;;;;;;;32.37;48.45;99430.15;1707500;84;21141;-61
2021/08/02 07:40:16;;;;;;;12.67;9.23;;;;;;;32.52;47.68;99428.23;1707739;84;20931;-61
2021/08/02 07:42:43;;;;;;;10.30;8.17;;;;;;;32.63;46.79;99418.77;1707711;84;21493;-60
2021/08/02 07:45:11;;;;;;;12.83;7.90;;;;;;;32.63;46.79;99418.77;1707706;84;21703;-61
2021/08/02 07:47:38;;;;;;;;;;;;;;;32.64;46.82;99425.91;1696601;83;21416;-60
2021/08/02 07:50:07;;;;;;;13.32;9.45;;;;;;;32.65;45.47;99413.61;1678767;84;21176;-60
2021/08/02 07:52:34;;;;;;;13.22;7.90;;;;;;;32.56;46.06;99420.13;1676725;83;21537;-70
2021/08/02 07:55:00;;;;;;;9.77;7.43;;;;;;;32.45;46.65;99414.55;1678575;84;20982;-70
2021/08/02 07:57:32;;;;;;;13.33;7.57;;;;;;;32.46;46.41;99415.33;1681912;83;21509;-70
2021/08/02 08:00:05;;;;;;;10.95;7.72;;;;;;;32.58;45.86;99414.19;1675003;84;21714;-71
2021/08/02 08:02:35;;;;;;;12.37;7.85;;;;;;;32.72;45.45;99406.55;1681033;83;21154;-70
2021/08/02 08:05:05;;;;;;;14.50;8.35;;;;;;;32.80;44.42;99422.83;1677542;83;21018;-71
2021/08/02 08:07:55;;;;;;;15.08;8.00;;;;;;;32.78;44.50;99416.86;1681026;84;20975;-71
2021/08/02 08:10:29;;;;;;;12.30;8.08;;;;;;;32.72;44.41;99423.98;1713261;82;20964;-72
2021/08/02 08:13:09;;;;;;;14.20;9.18;;;;;;;32.63;44.84;99423.53;1726325;82;21048;-73
2021/08/02 08:16:05;;;;;;;11.20;8.38;;;;;;;32.47;45.05;99411.38;1728606;82;21990;-72
2021/08/02 08:18:42;;;;;;;10.43;8.60;;;;;;;32.11;45.31;99416.17;1725175;82;21080;-72
2021/08/02 08:33:07;;;;;;;12.73;7.95;;;;;;;31.11;48.87;99380.17;1780088;80;22840;-59
2021/08/02 08:35:37;;;;;;;11.00;7.20;;;;;;;30.94;49.67;99392.61;1751241;82;20959;-59
2021/08/02 08:38:05;;;;;;;13.08;7.90;;;;;;;30.80;49.10;99387.73;1751009;81;21163;-60
2021/08/02 08:40:33;;;;;;;9.25;7.58;;;;;;;30.69;49.76;99402.03;1750693;81;21030;-59
2021/08/02 08:43:05;;;;;;;13.75;7.83;;;;;;;30.61;49.62;99410.02;1749176;82;20923;-58
2021/08/02 08:45:32;;;;;;;12.95;8.15;;;;;;;30.52;49.59;99407.54;1748355;82;21012;-59
2021/08/02 08:47:58;;;;;;;14.98;8.55;;;;;;;30.39;49.66;99409.15;1751085;82;20919;-60
2021/08/02 08:50:25;;;;;;;12.63;7.92;;;;;;;30.30;50.31;99424.41;1751498;82;21789;-59
2021/08/02 08:52:56;;;;;;;16.65;7.97;;;;;;;30.26;50.53;99426.36;1751794;81;20852;-60
2021/08/02 08:55:23;;;;;;;11.65;8.33;;;;;;;30.21;50.18;99428.27;1751454;82;20924;-59
2021/08/02 08:57:49;;;;;;;16.20;8.88;;;;;;;30.16;50.93;99428.58;1748220;82;21002;-60
2021/08/02 09:00:26;;;;;;;15.65;8.53;;;;;;;30.15;51.01;99424.80;1751524;82;20958;-59
2021/08/02 09:02:54;;;;;;;12.95;8.50;;;;;;;30.12;50.37;99428.32;1748274;82;21130;-60
2021/08/02 09:05:22;;;;;;;13.28;8.60;;;;;;;30.06;50.05;99423.70;1751592;82;20994;-59
2021/08/02 09:07:48;;;;;;;11.55;8.55;;;;;;;29.99;50.35;99416.13;1719950;82;20912;-59
2021/08/02 09:10:17;;;;;;;15.43;8.48;;;;;;;29.93;51.44;99425.87;1751330;82;21057;-59
2021/08/02 09:12:53;;;;;;;16.95;8.88;;;;;;;29.88;50.70;99422.84;1750969;82;21417;-59
2021/08/02 09:15:37;;;;;;;11.60;8.88;;;;;;;29.86;51.09;99429.94;1751003;82;21122;-60
2021/08/02 09:18:09;;;;;;;13.28;8.63;;;;;;;29.86;50.63;99416.13;1750527;82;21010;-59
2021/08/02 09:20:38;;;;;;;14.35;8.90;;;;;;;29.86;50.22;99421.05;1751072;82;20986;-58
2021/08/02 09:23:09;;;;;;;15.28;8.85;;;;;;;29.89;49.26;99433.33;1715432;83;20943;-59
2021/08/02 09:25:36;;;;;;;16.70;9.83;;;;;;;29.96;49.36;99427.09;1721424;83;21011;-60
2021/08/02 09:28:14;;;;;;;17.67;9.70;;;;;;;30.00;48.68;99421.05;1721663;83;21109;-59
2021/08/02 09:31:00;;;;;;;15.85;10.03;;;;;;;30.03;48.79;99427.20;1719603;83;21034;-59
2021/08/02 09:33:47;;;;;;;14.65;9.80;;;;;;;30.02;48.81;99432.51;1718549;83;21070;-60
2021/08/02 09:36:15;;;;;;;15.28;9.70;;;;;;;30.00;48.47;99430.72;1719899;83;21019;-58
2021/08/02 09:38:42;;;;;;;;;;;;;;;29.96;48.31;99433.44;1723249;83;21066;-60
2021/08/02 09:41:08;;;;;;;15.75;9.90;;;;;;;29.94;48.36;99427.47;1720893;83;21159;-59
2021/08/02 09:43:35;;;;;;;14.75;10.65;;;;;;;29.88;48.34;99428.97;1721816;82;20888;-59
2021/08/02 09:46:03;;;;;;;13.93;10.63;;;;;;;29.86;48.83;99427.17;1720931;83;20998;-59
2021/08/02 09:48:40;;;;;;;14.87;9.48;;;;;;;29.86;49.21;99432.10;1720717;83;21054;-60
2021/08/02 09:51:19;;;;;;;12.20;9.55;;;;;;;29.92;49.66;99431.77;1716542;83;21102;-60
2021/08/02 09:53:48;;;;;;;;;;;;;;;30.00;49.39;99438.41;1721630;83;21155;-68
2021/08/02 09:56:19;;;;;;;15.48;10.38;;;;;;;30.11;48.59;99433.06;1717215;83;20120;-64
2021/08/02 09:58:46;;;;;;;14.65;9.63;;;;;;;30.21;48.46;99435.74;1718220;83;21548;-65
2021/08/02 10:01:15;;;;;;;17.12;9.85;;;;;;;30.32;47.57;99422.88;1719977;83;21010;-64
2021/08/02 10:03:43;;;;;;;14.75;9.28;;;;;;;30.39;47.57;99436.00;1720042;83;21097;-65
2021/08/02 10:06:12;;;;;;;14.33;9.58;;;;;;;30.43;47.79;99435.47;1720948;83;21758;-65
2021/08/02 10:08:40;;;;;;;12.20;9.50;;;;;;;30.47;47.36;99431.39;1720560;83;21521;-64
2021/08/02 10:11:07;;;;;;;14.28;9.88;;;;;;;30.48;47.41;99433.77;1721124;83;21525;-65
2021/08/02 10:13:40;;;;;;;15.38;9.25;;;;;;;30.50;47.30;99433.39;1719452;83;20931;-64
2021/08/02 10:16:10;;;;;;;17.50;9.28;;;;;;;30.48;47.08;99432.39;1718130;83;21570;-64
2021/08/02 10:18:37;;;;;;;11.55;9.28;;;;;;;30.46;47.36;99433.93;1720993;83;21129;-64
2021/08/02 10:21:09;;;;;;;12.25;9.78;;;;;;;30.45;47.74;99430.37;1720732;83;21687;-64
2021/08/02 10:23:35;;;;;;;18.67;10.60;;;;;;;30.45;47.68;99422.09;1720611;83;21461;-66
2021/08/02 10:26:03;;;;;;;15.95;11.12;;;;;;;30.45;47.63;99425.42;1720730;83;21007;-67
2021/08/02 10:28:30;;;;;;;13.38;10.78;;;;;;;30.42;47.58;99416.50;1720757;83;21014;-65
2021/08/02 10:31:05;;;;;;;19.55;10.90;;;;;;;30.36;47.72;99409.09;1720841;83;21159;-63
2021/08/02 10:33:34;;;;;;;13.10;10.32;;;;;;;30.31;47.99;99408.05;1727615;83;21587;-64
2021/08/02 10:36:15;;;;;;;15.43;11.03;;;;;;;30.30;48.28;99413.36;1728950;83;21041;-65
2021/08/02 10:38:44;;;;;;;17.70;10.98;;;;;;;30.33;48.48;99411.22;1727857;83;21021;-65
2021/08/02 10:41:10;;;;;;;12.98;10.72;;;;;;;30.37;48.76;99408.73;1728899;83;21026;-64
2021/08/02 10:43:39;;;;;;;13.25;10.80;;;;;;;30.47;49.05;99405.13;1728646;83;21124;-64
2021/08/02 10:46:24;;;;;;;13.15;10.78;;;;;;;30.54;48.60;99402.45;1728173;83;20967;-64
2021/08/02 10:49:07;;;;;;;13.22;10.18;;;;;;;30.59;48.65;99399.34;1728742;83;20950;-65
2021/08/02 10:51:51;;;;;;;15.53;11.22;;;;;;;30.61;48.50;99390.09;1706377;83;21085;-64
2021/08/02 10:54:18;;;;;;;21.97;11.63;;;;;;;30.63;48.43;99384.19;1728198;83;20986;-64
2021/08/02 10:56:48;;;;;;;14.63;10.38;;;;;;;30.67;48.74;99378.09;1729350;83;21516;-64
2021/08/02 10:59:13;;;;;;;13.18;9.83;;;;;;;30.67;47.99;99378.91;1726087;83;21532;-64
2021/08/02 11:01:52;;;;;;;16.70;9.48;;;;;;;30.63;47.72;99383.59;1726057;83;21537;-64
2021/08/02 11:04:21;;;;;;;;;;;;;;;30.55;47.33;99384.67;1731346;83;21463;-65
2021/08/02 11:06:53;;;;;;;15.65;10.35;;;;;;;30.44;47.57;99388.70;1728378;83;20445;-65
2021/08/02 11:09:28;;;;;;;12.63;10.30;;;;;;;30.31;47.66;99374.29;1728743;83;21157;-65
2021/08/02 11:12:09;;;;;;;12.95;9.38;;;;;;;30.21;47.91;99357.80;1728377;83;20927;-64
2021/08/02 11:14:51;;;;;;;13.13;9.03;;;;;;;30.10;48.46;99358.24;1729107;82;21050;-65
2021/08/02 11:17:24;;;;;;;13.18;8.90;;;;;;;30.00;48.62;99379.61;1728883;83;21014;-66
2021/08/02 11:20:01;;;;;;;13.95;9.20;;;;;;;29.92;48.90;99388.95;1729117;83;20904;-65
2021/08/02 11:22:27;;;;;;;12.63;8.70;;;;;;;29.83;49.04;99367.13;1727910;83;21140;-65
2021/08/02 11:24:57;;;;;;;18.15;10.35;;;;;;;29.78;49.42;99366.05;1729127;83;21026;-65
2021/08/02 11:27:24;;;;;;;20.40;10.05;;;;;;;29.73;50.87;99379.60;1726421;83;21446;-66
2021/08/02 11:29:52;;;;;;;15.58;10.68;;;;;;;29.64;52.52;99385.98;1728935;83;20930;-59
2021/08/02 11:32:22;;;;;;;15.28;10.78;;;;;;;29.48;54.25;99384.73;1728470;82;21057;-58
2021/08/02 11:34:55;;;;;;;20.32;10.82;;;;;;;29.19;56.89;99391.91;1728913;83;21152;-58
2021/08/02 11:37:24;;;;;;;18.95;10.45;;;;;;;28.77;58.33;99412.03;1729016;82;21018;-59
2021/08/02 11:40:12;;;;;;;16.67;9.38;;;;;;;28.30;60.51;99426.80;1727027;81;20962;-58
2021/08/02 11:42:42;;;;;;;15.48;8.90;;;;;;;27.79;60.40;99439.97;1726329;81;21563;-58
2021/08/02 11:45:08;;;;;;;21.05;10.20;;;;;;;27.32;60.98;99422.27;1726234;83;21520;-58
2021/08/02 11:47:38;;;;;;;15.68;9.28;;;;;;;27.03;61.49;99426.22;1728837;83;21079;-59
2021/08/02 11:50:06;;;;;;;20.77;10.23;;;;;;;26.84;62.22;99438.70;1728835;83;21002;-58
2021/08/02 11:52:32;;;;;;;21.35;8.78;;;;;;;26.77;62.83;99452.80;1726615;81;21057;-58
2021/08/02 11:55:13;;;;;;;19.07;8.08;;;;;;;26.57;58.95;99453.43;1729228;83;20950;-58